createdAt,value
2018-06-14T18:14:36.438Z,420.00
2018-06-14T18:16:49.083Z,368.00
2018-06-14T18:17:49.737Z,368.00
2018-06-14T18:19:42.555Z,360.00
2018-06-14T18:20:43.015Z,340.00
2018-06-14T18:22:51.088Z,320.00
2018-06-14T18:23:51.063Z,316.00
2018-06-14T18:25:43.921Z,300.00
2018-06-14T18:26:43.894Z,288.00
2018-06-14T18:28:37.332Z,276.00
2018-06-14T18:29:36.893Z,272.00
2018-06-14T18:31:31.196Z,284.00
2018-06-14T18:32:31.179Z,288.00
2018-06-14T18:34:23.676Z,300.00
2018-06-14T18:35:23.202Z,304.00
2018-06-14T18:37:17.123Z,300.00
2018-06-14T18:38:18.052Z,296.00
2018-06-14T18:40:10.919Z,284.00
2018-06-14T18:41:10.071Z,276.00
2018-06-14T18:43:06.033Z,268.00
2018-06-14T18:44:04.304Z,272.00
2018-06-14T18:45:57.216Z,288.00
2018-06-14T18:46:56.750Z,300.00
2018-06-14T18:48:51.478Z,324.00
2018-06-14T18:49:51.941Z,332.00
2018-06-14T18:51:45.377Z,344.00
2018-06-14T18:52:45.668Z,344.00
2018-06-14T18:54:39.144Z,360.00
2018-06-14T18:55:39.968Z,384.00
2018-06-14T18:57:31.536Z,404.00
2018-06-14T18:58:30.512Z,416.00
2018-06-14T19:00:24.275Z,400.00
2018-06-14T19:01:23.140Z,384.00
2018-06-14T19:03:17.838Z,368.00
2018-06-14T19:04:18.870Z,364.00
2018-06-14T19:06:12.377Z,380.00
2018-06-14T19:07:10.754Z,404.00
2018-06-14T19:09:05.633Z,428.00
2018-06-14T19:10:05.010Z,444.00
2018-06-14T19:11:58.977Z,464.00
2018-06-14T19:12:59.359Z,460.00
2018-06-14T19:14:55.087Z,436.00
2018-06-14T19:15:53.190Z,408.00
2018-06-14T19:18:37.308Z,320.00
2018-06-14T19:19:35.905Z,292.00
2018-06-14T19:21:31.762Z,268.00
2018-06-14T19:22:30.429Z,264.00
2018-06-14T19:24:24.731Z,244.00
2018-06-14T19:25:23.057Z,232.00
2018-06-14T19:27:16.412Z,212.00
2018-06-14T19:28:15.987Z,200.00
2018-06-14T19:30:10.015Z,180.00
2018-06-14T19:31:09.377Z,168.00
2018-06-14T19:33:56.516Z,160.00
2018-06-14T19:34:54.343Z,160.00
2018-06-14T19:36:48.447Z,148.00
2018-06-14T19:37:48.686Z,140.00
2018-06-14T19:39:42.991Z,128.00
2018-06-14T19:40:42.760Z,124.00
2018-06-14T19:42:48.609Z,116.00
2018-06-14T19:44:48.563Z,104.00
2018-06-14T19:45:50.673Z,100.00
2018-06-14T19:47:43.181Z,80.00
2018-06-14T19:48:43.103Z,72.00
2018-06-14T19:50:38.399Z,60.00
2018-06-14T19:51:36.793Z,56.00
2018-06-14T19:53:30.492Z,40.00
2018-06-14T19:54:30.514Z,36.00
2018-06-14T19:56:24.366Z,32.00
2018-06-14T19:57:24.453Z,24.00
2018-06-14T19:59:17.117Z,20.00
2018-06-14T20:00:17.189Z,16.00
2018-06-14T20:02:11.072Z,16.00
2018-06-14T20:03:10.613Z,12.00
2018-06-14T20:05:58.892Z,12.00
2018-06-14T20:06:56.643Z,8.00
2018-06-14T20:08:50.458Z,8.00
2018-06-14T20:09:49.441Z,4.00
2018-06-14T20:11:43.075Z,0.00
2018-06-14T20:12:42.875Z,4.00
2018-06-14T20:15:30.117Z,4.00
2018-06-14T20:16:30.043Z,4.00
2018-06-14T20:18:23.320Z,0.00
2018-06-14T20:19:22.083Z,0.00
2018-06-14T20:21:17.377Z,0.00
2018-06-14T20:22:15.694Z,0.00
2018-06-14T20:24:33.340Z,0.00
2018-06-14T20:25:32.262Z,0.00
2018-06-14T20:27:26.949Z,0.00
2018-06-14T20:28:26.026Z,0.00
2018-06-14T20:30:19.578Z,0.00
2018-06-14T20:31:18.722Z,0.00
2018-06-14T20:33:12.453Z,0.00
2018-06-14T20:34:12.388Z,0.00
2018-06-14T20:36:05.798Z,0.00
2018-06-14T20:37:05.798Z,0.00
2018-06-14T20:38:59.770Z,0.00
2018-06-14T20:39:59.724Z,0.00
2018-06-14T20:41:53.165Z,0.00
2018-06-14T20:42:52.550Z,0.00
2018-06-14T20:44:46.011Z,0.00
2018-06-14T20:45:45.866Z,0.00
2018-06-14T20:47:39.691Z,0.00
2018-06-14T20:48:39.297Z,0.00
2018-06-14T20:50:32.642Z,0.00
2018-06-14T20:51:32.583Z,0.00
2018-06-14T20:53:40.341Z,0.00
2018-06-14T20:54:40.314Z,0.00
2018-06-14T20:56:34.588Z,0.00
2018-06-14T20:57:34.073Z,0.00
2018-06-14T20:59:27.563Z,0.00
2018-06-14T21:00:27.373Z,0.00
2018-06-14T21:02:20.809Z,0.00
2018-06-14T21:03:21.389Z,0.00
2018-06-14T21:05:14.862Z,0.00
2018-06-14T21:06:14.808Z,0.00
2018-06-14T21:08:07.896Z,0.00
2018-06-14T21:09:08.763Z,0.00
2018-06-14T21:11:05.460Z,0.00
2018-06-14T21:12:04.287Z,0.00
2018-06-14T21:13:54.541Z,0.00
2018-06-14T21:14:55.074Z,0.00
2018-06-14T21:16:49.414Z,0.00
2018-06-14T21:17:47.964Z,0.00
2018-06-14T21:19:43.438Z,0.00
2018-06-14T21:20:42.302Z,0.00
2018-06-14T21:22:36.882Z,0.00
2018-06-14T21:23:35.763Z,0.00
2018-06-14T21:26:22.216Z,0.00
2018-06-14T21:27:22.965Z,0.00
2018-06-14T21:29:15.491Z,0.00
2018-06-14T21:30:15.924Z,0.00
2018-06-14T21:32:09.365Z,0.00
2018-06-14T21:33:08.468Z,0.00
2018-06-14T21:35:02.724Z,0.00
2018-06-14T21:36:02.748Z,0.00
2018-06-14T21:37:55.628Z,0.00
2018-06-14T21:38:56.588Z,0.00
2018-06-14T21:40:49.010Z,0.00
2018-06-14T21:41:48.958Z,0.00
2018-06-14T21:43:42.892Z,0.00
2018-06-14T21:44:41.955Z,0.00
2018-06-14T21:46:36.275Z,0.00
2018-06-14T21:47:35.673Z,0.00
2018-06-14T21:49:29.095Z,0.00
2018-06-14T21:50:29.622Z,0.00
2018-06-14T21:52:22.245Z,0.00
2018-06-14T21:53:22.959Z,0.00
2018-06-14T21:55:15.606Z,0.00
2018-06-14T21:56:15.596Z,0.00
2018-06-14T21:58:09.034Z,0.00
2018-06-14T21:59:09.526Z,0.00
2018-06-14T22:01:02.323Z,0.00
2018-06-14T22:02:02.338Z,0.00
2018-06-14T22:03:56.327Z,0.00
2018-06-14T22:04:55.726Z,0.00
2018-06-14T22:06:49.131Z,0.00
2018-06-14T22:07:49.076Z,0.00
2018-06-14T22:09:42.522Z,0.00
2018-06-14T22:10:42.210Z,0.00
2018-06-14T22:12:35.928Z,0.00
2018-06-14T22:13:35.569Z,0.00
2018-06-14T22:15:31.215Z,0.00
2018-06-14T22:16:30.762Z,0.00
2018-06-14T22:18:23.619Z,0.00
2018-06-14T22:19:22.271Z,0.00
2018-06-14T22:21:17.625Z,0.00
2018-06-14T22:22:16.132Z,0.00
2018-06-14T22:24:09.579Z,0.00
2018-06-14T22:25:08.816Z,0.00
2018-06-14T22:27:04.357Z,0.00
2018-06-14T22:28:03.368Z,0.00
2018-06-14T22:29:56.327Z,0.00
2018-06-14T22:30:55.511Z,0.00
2018-06-14T22:32:49.348Z,0.00
2018-06-14T22:33:49.273Z,0.00
2018-06-14T22:35:41.897Z,0.00
2018-06-14T22:36:41.890Z,0.00
2018-06-14T22:38:36.170Z,0.00
2018-06-14T22:39:35.250Z,0.00
2018-06-14T22:41:29.021Z,0.00
2018-06-14T22:42:29.997Z,0.00
2018-06-14T22:44:22.968Z,0.00
2018-06-14T22:45:21.909Z,0.00
2018-06-14T22:47:15.756Z,0.00
2018-06-14T22:48:16.257Z,0.00
2018-06-14T22:50:10.221Z,0.00
2018-06-14T22:51:09.147Z,0.00
2018-06-14T22:53:03.164Z,0.00
2018-06-14T22:54:01.809Z,0.00
2018-06-14T22:55:57.011Z,0.00
2018-06-14T22:56:55.983Z,0.00
2018-06-14T22:58:49.437Z,0.00
2018-06-14T22:59:49.231Z,0.00
2018-06-14T23:01:43.779Z,0.00
2018-06-14T23:02:43.258Z,0.00
2018-06-14T23:04:35.720Z,0.00
2018-06-14T23:05:36.751Z,0.00
2018-06-14T23:07:29.068Z,0.00
2018-06-14T23:08:28.676Z,0.00
2018-06-14T23:10:23.005Z,0.00
2018-06-14T23:11:23.382Z,0.00
2018-06-14T23:13:15.817Z,0.00
2018-06-14T23:14:15.488Z,0.00
2018-06-14T23:16:09.208Z,0.00
2018-06-14T23:17:09.179Z,0.00
2018-06-14T23:19:02.575Z,0.00
2018-06-14T23:20:03.073Z,0.00
2018-06-14T23:21:56.394Z,0.00
2018-06-14T23:22:57.409Z,0.00
2018-06-14T23:24:49.941Z,0.00
2018-06-14T23:25:50.232Z,0.00
2018-06-14T23:27:43.359Z,0.00
2018-06-14T23:28:42.421Z,0.00
2018-06-14T23:30:36.831Z,0.00
2018-06-14T23:31:36.661Z,0.00
2018-06-14T23:33:30.194Z,0.00
2018-06-14T23:34:30.619Z,0.00
2018-06-14T23:36:23.574Z,0.00
2018-06-14T23:37:22.256Z,0.00
2018-06-14T23:39:16.485Z,0.00
2018-06-14T23:40:16.483Z,0.00
2018-06-14T23:42:09.851Z,0.00
2018-06-14T23:43:10.787Z,0.00
2018-06-14T23:45:03.700Z,0.00
2018-06-14T23:46:03.720Z,0.00
2018-06-14T23:47:56.832Z,0.00
2018-06-14T23:48:55.482Z,0.00
2018-06-14T23:50:48.779Z,0.00
2018-06-14T23:51:50.062Z,0.00
2018-06-14T23:53:42.689Z,0.00
2018-06-14T23:54:42.605Z,0.00
2018-06-14T23:56:37.029Z,0.00
2018-06-14T23:57:35.414Z,0.00
2018-06-14T23:59:30.700Z,0.00
